Time;durP1;ratioP1;P1;durP2;ratioP2;P2;SDS_P1;SDS_P2;PMS_P1;PMS_P2;Temp;Humidity;BMP_temperature;BMP_pressure;BME280_temperature;BME280_humidity;BME280_pressure;Samples;Min_cycle;Max_cycle;Signal;HPM_P1;HPM_P2
2022/01/09 00:01:24;;;;;;;8.75;6.40;;;;;;;3.21;67.83;96145.38;8445840;28;20346;-75
2022/01/09 00:05:28;;;;;;;7.00;5.90;;;;;;;3.05;67.69;96124.78;8447164;28;20242;-78
2022/01/09 00:09:32;;;;;;;7.90;6.27;;;;;;;3.51;67.47;96122.72;8480352;28;20221;-77
2022/01/09 00:13:35;;;;;;;7.40;6.70;;;;;;;3.38;67.29;96114.75;8480794;28;20248;-77
2022/01/09 00:17:38;;;;;;;8.03;6.87;;;;;;;3.50;67.51;96109.09;8480780;28;20244;-79
2022/01/09 00:21:42;;;;;;;9.17;7.57;;;;;;;3.28;67.73;96100.72;8480769;28;20423;-79
2022/01/09 00:25:45;;;;;;;10.47;7.20;;;;;;;2.98;69.33;96085.00;8480529;28;20233;-78
2022/01/09 00:29:54;;;;;;;9.83;8.47;;;;;;;2.68;69.45;96070.09;8480427;28;20286;-79
2022/01/09 00:33:57;;;;;;;10.73;8.93;;;;;;;2.88;70.21;96062.41;8483320;28;20226;-80
2022/01/09 00:38:01;;;;;;;16.07;11.47;;;;;;;3.15;68.90;96049.28;8486744;28;20229;-80
2022/01/09 00:42:05;;;;;;;13.33;8.63;;;;;;;3.33;68.36;96043.34;8487223;28;20248;-79
2022/01/09 00:46:09;;;;;;;13.97;10.83;;;;;;;3.00;69.86;96042.31;8486770;28;20244;-80
2022/01/09 00:50:13;;;;;;;13.10;9.43;;;;;;;3.17;68.82;96036.44;8486440;28;20400;-80
2022/01/09 00:54:18;;;;;;;11.80;8.40;;;;;;;3.07;68.91;96011.25;8486777;28;20232;-79
2022/01/09 00:58:21;;;;;;;8.70;7.17;;;;;;;3.17;68.66;96006.56;8486208;28;20229;-78
2022/01/09 01:02:24;;;;;;;7.63;5.50;;;;;;;3.29;68.83;95997.47;8486075;28;20234;-78
2022/01/09 01:06:27;;;;;;;6.13;5.40;;;;;;;3.05;69.38;95990.03;8486043;28;20233;-76
2022/01/09 01:10:31;;;;;;;9.53;7.30;;;;;;;2.77;69.69;95970.00;8475876;28;20259;-77
2022/01/09 01:14:34;;;;;;;5.07;4.57;;;;;;;2.94;69.79;95961.59;8451909;28;20222;-76
2022/01/09 01:18:37;;;;;;;6.80;5.47;;;;;;;3.31;69.58;95981.16;8452277;28;20248;-79
2022/01/09 01:22:40;;;;;;;7.10;5.20;;;;;;;3.15;69.72;95971.72;8452091;28;20230;-79
2022/01/09 01:26:45;;;;;;;6.37;5.30;;;;;;;2.93;70.68;95965.88;8451927;28;20537;-81
2022/01/09 01:30:47;;;;;;;4.97;4.27;;;;;;;3.52;68.95;95970.78;8451794;28;20242;-80
2022/01/09 01:34:51;;;;;;;8.48;6.05;;;;;;;3.57;68.51;95950.94;8450278;28;20410;-78
2022/01/09 01:38:54;;;;;;;4.73;4.10;;;;;;;3.42;69.58;95952.50;8451615;28;20237;-77
2022/01/09 01:42:58;;;;;;;5.30;4.43;;;;;;;3.18;70.56;95936.59;8452105;28;20230;-77
2022/01/09 01:47:01;;;;;;;5.43;4.07;;;;;;;3.22;69.40;95942.38;8451687;28;20226;-75
2022/01/09 01:51:04;;;;;;;6.37;4.73;;;;;;;3.10;70.53;95933.56;8453465;28;20198;-76
2022/01/09 01:55:08;;;;;;;4.87;3.70;;;;;;;3.24;70.31;95938.88;8451866;28;20226;-76
2022/01/09 01:59:13;;;;;;;4.87;4.37;;;;;;;3.52;68.30;95917.03;8451140;28;20230;-76
2022/01/09 02:03:16;;;;;;;6.10;3.67;;;;;;;3.18;69.81;95920.41;8450912;28;20541;-79
2022/01/09 02:07:19;;;;;;;4.00;3.60;;;;;;;3.70;67.99;95916.16;8451033;28;20230;-77
2022/01/09 02:11:23;;;;;;;6.03;3.90;;;;;;;3.53;69.70;95896.50;8450904;28;20405;-76
2022/01/09 02:15:32;;;;;;;3.30;3.00;;;;;;;3.61;69.45;95905.53;8450752;28;20237;-76
2022/01/09 02:19:35;;;;;;;4.00;3.43;;;;;;;3.31;70.64;95891.63;8449779;28;20222;-77
2022/01/09 02:23:41;;;;;;;3.63;3.03;;;;;;;3.66;69.59;95889.03;8450749;28;20230;-76
2022/01/09 02:27:44;;;;;;;3.57;3.03;;;;;;;3.45;69.68;95885.00;8450552;28;20234;-75
2022/01/09 02:31:47;;;;;;;3.33;2.87;;;;;;;3.31;70.79;95890.78;8449913;28;20564;-75
2022/01/09 02:35:51;;;;;;;4.27;3.67;;;;;;;3.07;71.32;95880.00;8449581;28;20246;-75
2022/01/09 02:39:56;;;;;;;3.03;2.77;;;;;;;3.06;71.66;95863.81;8449368;28;20229;-76
2022/01/09 02:43:59;;;;;;;4.00;2.60;;;;;;;3.47;70.27;95868.66;8449606;28;20407;-76
2022/01/09 02:48:03;;;;;;;2.87;2.50;;;;;;;2.91;72.09;95856.88;8449256;28;20257;-76
2022/01/09 02:52:11;;;;;;;3.27;2.47;;;;;;;2.79;72.89;95845.50;8449147;28;20246;-76
2022/01/09 02:56:17;;;;;;;2.60;2.40;;;;;;;3.25;71.23;95840.72;8448752;28;20226;-76
2022/01/09 03:00:22;;;;;;;3.00;2.40;;;;;;;2.99;72.46;95836.91;8449214;28;20226;-76
2022/01/09 03:04:25;;;;;;;2.23;2.03;;;;;;;3.39;70.81;95827.28;8448459;28;20324;-76
2022/01/09 03:08:28;;;;;;;2.63;2.30;;;;;;;3.24;71.23;95831.41;8448464;28;20233;-76
2022/01/09 03:12:32;;;;;;;2.30;2.07;;;;;;;3.38;70.71;95830.72;8481698;28;20221;-76
2022/01/09 03:16:35;;;;;;;3.37;2.40;;;;;;;3.20;71.65;95832.47;8482110;28;20555;-76
2022/01/09 03:20:39;;;;;;;2.20;2.00;;;;;;;3.57;69.86;95825.50;8482078;28;20555;-76
2022/01/09 03:24:42;;;;;;;1.90;1.80;;;;;;;3.07;72.30;95819.44;8482186;28;20233;-76
2022/01/09 03:28:47;;;;;;;1.90;1.50;;;;;;;3.45;70.66;95816.72;8481932;28;20338;-76
2022/01/09 03:32:51;;;;;;;2.27;1.73;;;;;;;3.30;71.42;95812.38;8482099;28;20420;-76
2022/01/09 03:36:54;;;;;;;2.47;2.00;;;;;;;3.32;71.14;95810.56;8481744;28;20228;-76
2022/01/09 03:40:57;;;;;;;2.20;1.90;;;;;;;3.60;70.39;95798.94;8481940;28;20225;-77
2022/01/09 03:45:03;;;;;;;1.80;1.60;;;;;;;3.34;70.97;95795.97;8481664;28;20232;-78
2022/01/09 03:49:05;;;;;;;1.60;1.50;;;;;;;3.65;70.00;95802.09;8481537;28;20416;-78
2022/01/09 03:53:12;;;;;;;1.87;1.70;;;;;;;3.82;69.91;95793.53;8481366;28;20258;-77
2022/01/09 03:57:15;;;;;;;1.60;1.50;;;;;;;3.99;69.29;95796.03;8449539;28;20229;-77
2022/01/09 04:01:19;;;;;;;1.10;1.10;;;;;;;4.21;68.62;95772.69;8447017;28;20222;-77
2022/01/09 04:05:22;;;;;;;1.47;1.33;;;;;;;4.12;68.86;95775.72;8447135;28;20552;-76
2022/01/09 04:09:37;;;;;;;1.73;1.40;;;;;;;4.32;67.86;95772.06;8446054;28;20563;-76
2022/01/09 04:13:40;;;;;;;1.30;1.20;;;;;;;4.26;68.49;95767.28;8446962;28;20416;-76
2022/01/09 04:17:51;;;;;;;1.17;1.10;;;;;;;4.29;68.12;95762.84;8447097;28;20245;-75
2022/01/09 04:21:54;;;;;;;1.53;1.40;;;;;;;4.39;67.66;95765.72;8447324;28;20232;-76
2022/01/09 04:25:57;;;;;;;1.10;1.00;;;;;;;4.62;67.05;95764.44;8447007;28;20233;-76
2022/01/09 04:30:00;;;;;;;1.20;1.10;;;;;;;4.49;67.85;95760.91;8446658;28;20244;-76
2022/01/09 04:34:04;;;;;;;1.30;1.20;;;;;;;4.54;67.83;95750.41;8447176;28;20226;-77
2022/01/09 04:38:08;;;;;;;1.37;1.23;;;;;;;4.72;67.49;95749.34;8447182;28;20579;-77
2022/01/09 04:42:11;;;;;;;1.33;1.17;;;;;;;4.81;67.54;95750.59;8447025;28;20226;-76
2022/01/09 04:46:20;;;;;;;1.00;1.00;;;;;;;4.64;67.98;95748.97;8446714;28;20237;-76
2022/01/09 04:50:24;;;;;;;1.20;1.10;;;;;;;4.73;67.25;95743.34;8447131;28;20429;-75
2022/01/09 04:54:27;;;;;;;1.20;1.10;;;;;;;4.90;67.01;95752.63;8446729;28;20592;-75
2022/01/09 04:58:30;;;;;;;1.17;1.07;;;;;;;4.94;67.37;95751.53;8446625;28;20236;-76
2022/01/09 05:02:34;;;;;;;1.00;0.93;;;;;;;5.02;67.05;95746.78;8445870;28;20222;-75
2022/01/09 05:06:39;;;;;;;1.40;0.80;;;;;;;4.98;67.44;95753.00;8446598;28;20634;-77
2022/01/09 05:10:42;;;;;;;1.17;1.07;;;;;;;5.19;67.10;95745.00;8446304;28;20541;-75
2022/01/09 05:14:45;;;;;;;1.03;1.03;;;;;;;5.20;66.64;95750.06;8446131;28;20234;-76
2022/01/09 05:18:53;;;;;;;1.00;1.00;;;;;;;5.27;66.49;95760.75;8446966;28;20269;-76
2022/01/09 05:22:57;;;;;;;2.73;1.30;;;;;;;5.36;66.49;95757.66;8452650;28;20398;-76
2022/01/09 05:27:00;;;;;;;4.97;1.20;;;;;;;5.13;67.08;95771.84;8451996;28;20234;-76
2022/01/09 05:31:03;;;;;;;1.30;1.20;;;;;;;5.13;66.99;95783.84;8452009;28;20256;-76
2022/01/09 05:35:07;;;;;;;1.40;1.30;;;;;;;5.34;66.84;95781.78;8451568;28;20230;-76
2022/01/09 05:39:11;;;;;;;1.30;1.20;;;;;;;5.41;66.38;95796.75;8451681;28;20230;-76
2022/01/09 05:43:15;;;;;;;1.20;1.10;;;;;;;5.31;66.63;95795.59;8451276;28;20237;-76
2022/01/09 05:47:18;;;;;;;2.33;1.40;;;;;;;5.37;66.49;95791.84;8451341;28;20301;-76
2022/01/09 05:51:21;;;;;;;1.20;1.10;;;;;;;5.57;66.26;95799.22;8451315;28;20545;-76
2022/01/09 05:55:25;;;;;;;1.40;1.23;;;;;;;5.56;66.18;95799.31;8451189;28;20230;-76
2022/01/09 05:59:28;;;;;;;1.77;1.23;;;;;;;5.60;66.23;95805.94;8450971;28;20234;-76
2022/01/09 06:03:31;;;;;;;1.43;1.30;;;;;;;5.33;66.84;95810.91;8450291;28;20229;-76
2022/01/09 06:07:34;;;;;;;1.00;1.00;;;;;;;5.62;65.95;95816.94;8450629;28;20226;-76
2022/01/09 06:11:38;;;;;;;1.50;1.40;;;;;;;5.63;66.24;95809.13;8450515;28;20241;-78
2022/01/09 06:15:42;;;;;;;1.40;1.30;;;;;;;5.44;67.30;95818.81;8450494;28;20226;-76
2022/01/09 06:19:45;;;;;;;1.47;1.37;;;;;;;5.65;66.71;95824.44;8450231;28;20238;-76
2022/01/09 06:23:47;;;;;;;1.40;1.30;;;;;;;5.58;67.07;95841.97;8450205;28;20237;-76
2022/01/09 06:27:52;;;;;;;1.50;1.40;;;;;;;5.63;66.95;95845.06;8449951;28;20244;-76
2022/01/09 06:31:55;;;;;;;1.40;1.30;;;;;;;5.65;66.97;95850.97;8448795;28;20230;-76
2022/01/09 06:35:58;;;;;;;1.30;1.20;;;;;;;5.56;66.87;95859.22;8449881;28;20233;-76
2022/01/09 06:40:00;;;;;;;2.53;1.50;;;;;;;5.57;67.78;95860.84;8449855;28;20230;-76
2022/01/09 06:44:05;;;;;;;1.30;1.20;;;;;;;5.70;67.28;95870.41;8449931;28;20226;-76
2022/01/09 06:48:08;;;;;;;1.17;1.07;;;;;;;5.74;67.35;95885.53;8449423;28;20278;-76
2022/01/09 06:52:11;;;;;;;0.83;0.83;;;;;;;5.52;68.20;95882.56;8449532;28;20222;-76
2022/01/09 06:56:14;;;;;;;0.67;0.67;;;;;;;5.76;67.95;95906.84;8449475;28;20268;-77
2022/01/09 07:00:18;;;;;;;1.10;0.70;;;;;;;5.84;67.96;95907.19;8449178;28;20234;-76
2022/01/09 07:04:21;;;;;;;0.50;0.43;;;;;;;5.81;67.72;95919.44;8448518;28;20240;-76
2022/01/09 07:08:26;;;;;;;0.40;0.40;;;;;;;5.92;67.37;95931.63;8448812;28;20230;-76
2022/01/09 07:12:29;;;;;;;0.30;0.30;;;;;;;5.86;67.63;95940.50;8448627;28;20241;-76
2022/01/09 07:16:34;;;;;;;0.30;0.30;;;;;;;5.75;67.66;95956.56;8448296;28;20531;-75
2022/01/09 07:20:37;;;;;;;0.60;0.60;;;;;;;5.77;67.34;95953.88;8448689;28;20234;-76
2022/01/09 07:24:40;;;;;;;0.60;0.60;;;;;;;5.76;67.88;95967.66;8448431;28;20249;-76
2022/01/09 07:28:43;;;;;;;0.63;0.50;;;;;;;5.72;67.33;95984.16;8448153;28;20315;-75
2022/01/09 07:32:48;;;;;;;0.47;0.47;;;;;;;5.83;67.27;95989.50;8448154;28;20233;-76
2022/01/09 07:36:51;;;;;;;0.63;0.50;;;;;;;5.93;67.15;95997.53;8448212;28;20238;-76
2022/01/09 07:40:54;;;;;;;1.43;1.00;;;;;;;6.01;66.69;96013.34;8448250;28;20221;-76
2022/01/09 07:44:57;;;;;;;0.73;0.50;;;;;;;5.83;66.73;96028.88;8447868;28;20233;-76
2022/01/09 07:49:01;;;;;;;0.90;0.60;;;;;;;5.68;67.55;96037.44;8448038;28;20233;-76
2022/01/09 07:53:04;;;;;;;0.67;0.50;;;;;;;5.88;66.49;96049.16;8447374;28;20229;-76
2022/01/09 07:57:07;;;;;;;0.50;0.50;;;;;;;5.69;66.76;96059.63;8447493;28;20249;-76
2022/01/09 08:01:10;;;;;;;0.50;0.50;;;;;;;5.55;67.11;96062.94;8447493;28;20226;-76
2022/01/09 08:05:16;;;;;;;0.50;0.50;;;;;;;5.36;67.26;96080.28;8447546;28;20237;-76
2022/01/09 08:09:19;;;;;;;0.63;0.60;;;;;;;5.52;66.55;96091.38;8447487;28;20234;-76
2022/01/09 08:13:22;;;;;;;1.93;0.83;;;;;;;5.56;66.86;96097.16;8447043;28;20234;-76
2022/01/09 08:17:25;;;;;;;0.60;0.57;;;;;;;5.60;66.20;96104.63;8446793;28;20230;-75
2022/01/09 08:21:29;;;;;;;3.03;1.00;;;;;;;5.58;66.22;96118.44;8455920;28;20236;-76
2022/01/09 08:25:32;;;;;;;1.17;0.77;;;;;;;5.51;66.39;96122.28;8446710;28;20401;-74
2022/01/09 08:29:37;;;;;;;1.27;0.60;;;;;;;5.32;66.86;96127.56;8450533;28;20403;-74
2022/01/09 08:33:40;;;;;;;1.03;0.60;;;;;;;5.33;66.90;96142.88;8461650;28;20260;-74
2022/01/09 08:37:45;;;;;;;0.60;0.60;;;;;;;5.41;66.83;96150.19;8462674;28;20437;-74
2022/01/09 08:41:48;;;;;;;1.30;0.70;;;;;;;5.29;67.47;96157.59;8463245;28;20529;-74
2022/01/09 08:45:50;;;;;;;1.00;0.63;;;;;;;5.24;67.60;96151.06;8468198;28;20238;-74
2022/01/09 08:49:53;;;;;;;0.50;0.43;;;;;;;5.30;67.23;96158.44;8479898;28;20233;-75
2022/01/09 08:53:59;;;;;;;1.70;1.03;;;;;;;5.34;67.41;96164.22;8481276;28;20400;-74
2022/01/09 08:58:01;;;;;;;1.20;0.70;;;;;;;5.28;67.50;96176.47;8483434;28;20237;-74
2022/01/09 09:02:05;;;;;;;0.70;0.60;;;;;;;5.43;67.18;96197.13;8471498;28;20222;-75
2022/01/09 09:06:08;;;;;;;0.83;0.70;;;;;;;5.38;67.27;96188.84;8468554;28;20557;-74
2022/01/09 09:10:13;;;;;;;2.77;1.47;;;;;;;5.12;67.69;96206.38;8466202;28;20244;-75
2022/01/09 09:14:17;;;;;;;4.90;2.60;;;;;;;5.20;67.92;96213.72;8468299;28;20294;-74
2022/01/09 09:18:20;;;;;;;2.30;1.10;;;;;;;5.17;68.45;96224.13;8468102;28;20226;-75
2022/01/09 09:22:23;;;;;;;1.20;0.90;;;;;;;5.44;67.60;96221.88;8466336;28;20226;-75
2022/01/09 09:26:27;;;;;;;1.33;0.90;;;;;;;5.24;67.99;96243.44;8473756;28;20410;-75
2022/01/09 09:30:30;;;;;;;1.27;1.03;;;;;;;5.15;68.34;96262.69;8478166;28;20539;-75
2022/01/09 09:34:34;;;;;;;7.07;5.83;;;;;;;5.28;68.48;96265.47;8485249;28;20222;-75
2022/01/09 09:38:37;;;;;;;2.70;1.50;;;;;;;5.34;67.63;96266.91;8480757;28;20434;-75
2022/01/09 09:42:42;;;;;;;3.37;2.80;;;;;;;5.17;67.77;96286.53;8475256;28;20229;-75
2022/01/09 09:46:48;;;;;;;1.93;1.20;;;;;;;5.33;68.33;96294.31;8472595;28;20234;-75
2022/01/09 09:50:51;;;;;;;3.83;2.67;;;;;;;5.44;67.61;96304.03;8466672;28;20242;-75
2022/01/09 09:54:55;;;;;;;2.43;0.80;;;;;;;5.33;67.94;96311.44;8467372;28;20523;-75
2022/01/09 09:59:00;;;;;;;0.83;0.80;;;;;;;5.22;67.86;96325.66;8461768;28;20226;-75
2022/01/09 10:03:04;;;;;;;1.80;0.70;;;;;;;5.09;68.66;96332.28;8471278;28;20225;-76
2022/01/09 10:07:22;;;;;;;1.30;0.80;;;;;;;5.40;67.76;96341.88;8483198;28;20225;-75
2022/01/09 10:11:25;;;;;;;1.67;0.83;;;;;;;5.50;67.83;96342.22;8484522;28;20236;-74
2022/01/09 10:15:44;;;;;;;4.47;0.90;;;;;;;5.54;67.20;96348.06;8449946;28;20233;-74
2022/01/09 10:19:49;;;;;;;0.93;0.80;;;;;;;5.49;68.09;96354.25;8450161;28;20234;-75
2022/01/09 10:24:00;;;;;;;1.63;0.80;;;;;;;5.61;67.47;96355.38;8449884;28;20269;-76
2022/01/09 10:28:07;;;;;;;1.00;0.90;;;;;;;5.75;67.28;96359.84;8449926;28;20252;-74
2022/01/09 10:32:17;;;;;;;1.37;0.80;;;;;;;5.90;66.82;96365.09;8449926;28;20229;-77
2022/01/09 10:36:33;;;;;;;3.13;1.10;;;;;;;5.80;66.87;96372.44;8449718;28;20237;-76
2022/01/09 10:40:38;;;;;;;6.63;3.10;;;;;;;5.94;67.17;96380.28;8449448;28;20525;-75
2022/01/09 10:44:43;;;;;;;3.30;1.73;;;;;;;5.75;67.58;96400.06;8449591;28;20236;-77
2022/01/09 10:48:47;;;;;;;11.73;5.73;;;;;;;5.68;67.53;96399.56;8449919;28;20236;-77
2022/01/09 10:52:50;;;;;;;12.37;6.13;;;;;;;5.76;67.60;96400.00;8449160;28;20537;-78
2022/01/09 10:57:12;;;;;;;1541.70;742.63;;;;;;;6.45;82.29;96400.81;8449314;28;20234;-77
2022/01/09 11:01:24;;;;;;;1737.87;915.73;;;;;;;7.44;89.22;96404.84;8449091;28;20226;-78
2022/01/09 11:05:29;;;;;;;1737.43;920.93;;;;;;;8.06;92.38;96418.50;8448869;28;20533;-77
2022/01/09 11:09:33;;;;;;;1434.43;830.83;;;;;;;8.03;86.01;96427.22;8448307;28;20242;-77
2022/01/09 11:13:38;;;;;;;920.73;610.43;;;;;;;7.67;78.42;96425.84;8448923;28;20420;-76
2022/01/09 11:17:42;;;;;;;1446.73;827.97;;;;;;;8.03;82.97;96440.13;8448183;28;20234;-78
2022/01/09 11:21:48;;;;;;;1193.10;667.20;;;;;;;7.92;76.71;96438.19;8448487;28;20328;-76
2022/01/09 11:25:53;;;;;;;973.93;577.80;;;;;;;8.17;78.59;96441.91;8448435;28;20242;-77
2022/01/09 11:30:04;;;;;;;843.87;511.20;;;;;;;8.13;75.94;96449.00;8448000;28;20234;-76
2022/01/09 11:34:15;;;;;;;461.87;254.33;;;;;;;8.13;76.14;96456.72;8448023;28;20226;-74
2022/01/09 11:38:25;;;;;;;576.77;337.07;;;;;;;8.09;74.66;96450.09;8448050;28;20230;-75
2022/01/09 11:42:28;;;;;;;182.53;94.13;;;;;;;7.93;69.35;96460.44;8448182;28;20256;-74
2022/01/09 11:46:32;;;;;;;353.90;182.87;;;;;;;8.36;74.37;96464.88;8447493;28;20245;-75
2022/01/09 11:50:41;;;;;;;108.83;55.97;;;;;;;8.03;69.00;96460.75;8447439;28;20230;-74
2022/01/09 11:54:50;;;;;;;177.20;89.03;;;;;;;8.46;71.36;96465.19;8447645;28;20236;-74
2022/01/09 11:59:17;;;;;;;73.30;37.13;;;;;;;8.39;67.46;96469.81;8449188;28;20233;-73
2022/01/09 12:03:38;;;;;;;38.47;19.60;;;;;;;8.05;64.86;96469.22;8447990;28;20222;-72
2022/01/09 12:08:08;;;;;;;42.90;21.53;;;;;;;8.47;69.95;96465.06;8480778;28;20225;-72
2022/01/09 12:12:14;;;;;;;35.00;15.57;;;;;;;8.53;69.08;96467.28;8481009;28;20561;-73
2022/01/09 12:16:49;;;;;;;38.73;21.00;;;;;;;8.61;66.62;96470.22;8481013;28;20417;-73
2022/01/09 12:20:52;;;;;;;15.03;7.50;;;;;;;8.37;64.75;96482.81;8446872;28;20298;-74
2022/01/09 12:24:55;;;;;;;34.63;16.83;;;;;;;8.48;69.59;96483.97;8447237;28;20222;-73
2022/01/09 12:29:05;;;;;;;23.20;12.87;;;;;;;8.73;70.12;96491.06;8448150;28;20386;-73
2022/01/09 12:33:10;;;;;;;13.17;6.03;;;;;;;8.23;64.52;96482.81;8453966;28;20241;-72
2022/01/09 12:37:15;;;;;;;24.97;10.73;;;;;;;8.65;66.71;96480.38;8453774;28;20245;-73
2022/01/09 12:41:20;;;;;;;24.53;8.80;;;;;;;8.67;64.00;96476.78;8453702;28;20229;-73
2022/01/09 12:45:27;;;;;;;19.70;7.37;;;;;;;8.52;63.68;96486.25;8453597;28;20233;-74
2022/01/09 12:49:31;;;;;;;62.83;25.43;;;;;;;10.22;72.10;96498.91;8453562;28;20242;-70
2022/01/09 12:53:38;;;;;;;9.83;2.93;;;;;;;9.44;58.47;96497.84;8452339;28;20221;-73
2022/01/09 12:57:52;;;;;;;9.27;3.10;;;;;;;8.74;58.57;96508.22;8452398;28;20229;-73
2022/01/09 13:01:58;;;;;;;11.13;3.50;;;;;;;8.63;59.35;96505.44;8455817;28;20289;-74
2022/01/09 13:06:06;;;;;;;8.77;2.83;;;;;;;8.27;59.70;96510.06;8449263;28;20225;-73
2022/01/09 13:10:12;;;;;;;11.67;4.03;;;;;;;8.06;60.24;96519.06;8451065;28;20328;-73
2022/01/09 13:14:15;;;;;;;7.90;3.10;;;;;;;7.85;61.12;96523.69;8458821;28;20234;-74
2022/01/09 13:18:35;;;;;;;11.23;3.13;;;;;;;7.63;59.58;96527.44;8467575;28;20226;-73
2022/01/09 13:22:38;;;;;;;9.13;2.87;;;;;;;7.49;60.17;96532.53;8444333;28;20529;-73
2022/01/09 13:26:42;;;;;;;11.63;2.87;;;;;;;7.29;60.50;96546.47;8467749;28;20230;-73
2022/01/09 13:30:45;;;;;;;8.47;3.27;;;;;;;7.41;60.63;96540.69;8467295;28;20249;-74
2022/01/09 13:34:50;;;;;;;9.50;2.97;;;;;;;7.48;60.58;96554.88;8467698;28;20233;-73
2022/01/09 13:38:53;;;;;;;10.97;4.00;;;;;;;7.31;60.75;96555.81;8465051;28;20233;-73
2022/01/09 13:42:56;;;;;;;12.03;3.90;;;;;;;7.16;60.75;96562.59;8467444;28;20232;-73
2022/01/09 13:47:01;;;;;;;12.93;3.17;;;;;;;7.11;60.41;96563.75;8458872;28;20551;-74
2022/01/09 13:51:06;;;;;;;10.20;3.27;;;;;;;7.24;60.22;96569.91;8451301;28;20238;-73
2022/01/09 13:55:11;;;;;;;7.33;3.20;;;;;;;7.28;60.01;96568.00;8467184;28;20226;-73
2022/01/09 13:59:14;;;;;;;9.13;3.13;;;;;;;7.29;59.39;96573.09;8471369;28;20229;-74
2022/01/09 14:03:26;;;;;;;10.13;3.43;;;;;;;7.24;59.83;96577.63;8484526;28;20225;-73
2022/01/09 14:07:31;;;;;;;7.90;2.87;;;;;;;7.21;59.83;96588.09;8484801;28;20226;-74
2022/01/09 14:11:35;;;;;;;10.20;3.27;;;;;;;7.20;60.07;96586.44;8450302;28;20233;-73
2022/01/09 14:15:38;;;;;;;10.37;3.10;;;;;;;7.20;59.76;96587.28;8450510;28;20240;-73
2022/01/09 14:19:45;;;;;;;10.40;3.50;;;;;;;7.04;59.65;96602.69;8450831;28;20252;-73
2022/01/09 14:23:50;;;;;;;13.73;4.90;;;;;;;7.11;59.73;96599.78;8438202;28;20241;-73
2022/01/09 14:27:53;;;;;;;12.93;4.67;;;;;;;7.16;59.95;96605.50;8466163;28;20230;-74
2022/01/09 14:31:56;;;;;;;10.17;3.73;;;;;;;7.09;60.50;96610.16;8465501;28;20234;-74
2022/01/09 14:36:09;;;;;;;9.80;2.97;;;;;;;6.87;59.69;96613.00;8465611;28;20222;-74
2022/01/09 14:40:17;;;;;;;8.77;3.30;;;;;;;7.11;60.37;96622.97;8466090;28;20237;-73
2022/01/09 14:44:20;;;;;;;10.53;3.47;;;;;;;7.08;60.31;96628.25;8466496;28;20222;-73
2022/01/09 14:48:25;;;;;;;6.97;2.50;;;;;;;7.09;60.15;96638.47;8465696;28;20223;-74
2022/01/09 14:52:28;;;;;;;10.67;3.53;;;;;;;7.20;60.22;96635.38;8461093;28;20242;-74
2022/01/09 14:56:32;;;;;;;8.70;3.30;;;;;;;7.34;60.02;96639.78;8463618;28;20222;-73
2022/01/09 15:00:35;;;;;;;11.80;3.23;;;;;;;7.15;60.33;96643.31;8463314;28;20237;-73
2022/01/09 15:04:38;;;;;;;7.47;2.47;;;;;;;7.17;60.53;96648.38;8466496;28;20236;-73
2022/01/09 15:08:42;;;;;;;7.17;2.50;;;;;;;6.99;61.16;96647.59;8464605;28;20242;-74
2022/01/09 15:12:46;;;;;;;11.43;3.20;;;;;;;7.12;60.75;96650.34;8464799;28;20238;-73
2022/01/09 15:16:49;;;;;;;9.03;3.30;;;;;;;7.12;60.81;96658.94;8465114;28;20232;-74
2022/01/09 15:20:52;;;;;;;7.90;3.23;;;;;;;7.03;60.84;96665.38;8464559;28;20401;-74
2022/01/09 15:24:55;;;;;;;8.83;3.17;;;;;;;7.10;61.20;96672.78;8464076;28;20226;-73
2022/01/09 15:28:59;;;;;;;10.07;3.27;;;;;;;7.08;61.24;96678.00;8464209;28;20400;-74
2022/01/09 15:33:02;;;;;;;8.57;3.07;;;;;;;7.13;61.10;96680.34;8463837;28;20230;-74
2022/01/09 15:37:05;;;;;;;8.00;3.00;;;;;;;7.13;61.00;96696.63;8463924;28;20230;-74
2022/01/09 15:41:10;;;;;;;10.70;2.80;;;;;;;7.19;60.97;96703.22;8463985;28;20234;-74
2022/01/09 15:45:14;;;;;;;7.70;2.77;;;;;;;7.22;60.84;96709.03;8466672;28;20536;-73
2022/01/09 15:49:17;;;;;;;11.23;4.47;;;;;;;7.25;60.71;96715.75;8463878;28;20405;-74
2022/01/09 15:53:21;;;;;;;8.87;3.77;;;;;;;7.21;60.80;96714.25;8466403;28;20230;-74
2022/01/09 15:57:26;;;;;;;8.63;3.40;;;;;;;7.17;60.59;96713.56;8463198;28;20231;-73
2022/01/09 16:01:30;;;;;;;7.87;2.93;;;;;;;7.18;60.63;96717.84;8477584;28;20236;-74
2022/01/09 16:05:33;;;;;;;8.30;3.40;;;;;;;7.17;60.34;96723.06;8480313;28;20233;-73
2022/01/09 16:09:37;;;;;;;10.33;3.20;;;;;;;7.26;60.71;96734.66;8480858;28;20233;-74
2022/01/09 16:13:40;;;;;;;5.63;2.80;;;;;;;7.25;60.30;96733.78;8480662;28;20514;-74
2022/01/09 16:17:45;;;;;;;11.50;4.20;;;;;;;7.29;60.68;96745.63;8480678;28;20230;-74
2022/01/09 16:21:49;;;;;;;11.30;3.10;;;;;;;7.27;60.32;96746.59;8480260;28;20243;-74
2022/01/09 16:25:58;;;;;;;7.60;3.50;;;;;;;7.20;60.41;96751.22;8480510;28;20408;-74
2022/01/09 16:30:05;;;;;;;11.53;5.00;;;;;;;7.30;60.37;96757.56;8480056;28;20225;-75
2022/01/09 16:34:10;;;;;;;9.70;4.30;;;;;;;7.36;60.55;96761.59;8470692;28;20233;-75
2022/01/09 16:38:13;;;;;;;10.73;5.73;;;;;;;7.19;60.49;96765.81;8479602;28;20540;-75
2022/01/09 16:42:16;;;;;;;13.80;5.83;;;;;;;7.19;60.14;96763.25;8472840;28;20240;-75
2022/01/09 16:46:19;;;;;;;7.53;3.17;;;;;;;7.27;60.23;96773.16;8458254;28;20426;-75
2022/01/09 16:50:24;;;;;;;11.37;4.90;;;;;;;7.29;60.12;96778.25;8469597;28;20229;-75
2022/01/09 16:54:30;;;;;;;11.60;5.33;;;;;;;7.24;60.13;96781.88;8479831;28;20229;-75
2022/01/09 16:58:33;;;;;;;16.53;6.50;;;;;;;7.33;59.83;96785.75;8479663;28;20222;-74
2022/01/09 17:02:37;;;;;;;14.27;7.27;;;;;;;7.18;59.74;96791.69;8470710;28;20401;-75
2022/01/09 17:06:42;;;;;;;13.27;6.80;;;;;;;7.27;59.97;96804.06;8461815;28;20230;-74
2022/01/09 17:10:46;;;;;;;17.83;8.53;;;;;;;7.23;59.87;96808.56;8460274;28;20233;-74
2022/01/09 17:14:49;;;;;;;8.03;4.03;;;;;;;7.08;60.45;96811.88;8451464;28;20230;-74
2022/01/09 17:18:51;;;;;;;7.13;3.00;;;;;;;7.49;59.01;96828.78;8480248;28;20225;-75
2022/01/09 17:22:56;;;;;;;7.27;3.00;;;;;;;7.48;58.94;96821.94;8463162;28;20241;-75
2022/01/09 17:26:59;;;;;;;6.57;3.20;;;;;;;7.51;58.31;96819.22;8485562;28;20230;-76
2022/01/09 17:31:02;;;;;;;7.73;3.10;;;;;;;7.46;58.58;96824.59;8451513;28;20226;-75
2022/01/09 17:35:06;;;;;;;6.90;3.00;;;;;;;7.49;58.61;96821.06;8451493;28;20222;-77
2022/01/09 17:39:15;;;;;;;6.90;3.03;;;;;;;7.52;58.59;96826.88;8461838;28;20252;-76
2022/01/09 17:43:18;;;;;;;9.30;3.50;;;;;;;7.53;58.79;96832.88;8485148;28;20233;-75
2022/01/09 17:47:21;;;;;;;7.53;3.30;;;;;;;7.51;58.43;96835.50;8484997;28;20229;-75
2022/01/09 17:51:24;;;;;;;10.17;2.87;;;;;;;7.53;58.87;96835.44;8478331;28;20238;-75
2022/01/09 17:55:28;;;;;;;6.47;2.90;;;;;;;7.53;58.52;96849.16;8451202;28;20229;-75
2022/01/09 17:59:31;;;;;;;7.13;3.27;;;;;;;7.52;58.55;96842.34;8450648;28;20390;-72
2022/01/09 18:03:35;;;;;;;6.17;2.93;;;;;;;7.55;58.73;96849.91;8450667;28;20234;-73
2022/01/09 18:07:39;;;;;;;6.63;3.10;;;;;;;7.53;58.92;96856.06;8470195;28;20302;-73
2022/01/09 18:11:43;;;;;;;6.80;3.60;;;;;;;7.56;58.59;96853.34;8484013;28;20230;-73
2022/01/09 18:15:46;;;;;;;5.70;3.40;;;;;;;7.54;58.88;96868.00;8483763;28;20235;-73
2022/01/09 18:19:49;;;;;;;10.03;7.00;;;;;;;7.46;59.12;96867.56;8483969;28;20416;-75
2022/01/09 18:23:52;;;;;;;11.33;6.70;;;;;;;7.43;59.13;96868.56;8484184;28;20236;-74
2022/01/09 18:27:57;;;;;;;8.57;5.87;;;;;;;7.46;59.21;96883.03;8482989;28;20512;-74
2022/01/09 18:32:00;;;;;;;8.90;4.83;;;;;;;7.47;59.26;96882.13;8483619;28;20234;-75
2022/01/09 18:36:03;;;;;;;8.17;4.90;;;;;;;7.47;59.20;96889.84;8483772;28;20294;-73
2022/01/09 18:40:08;;;;;;;6.37;3.97;;;;;;;7.44;59.00;96885.66;8483557;28;20221;-73
2022/01/09 18:44:13;;;;;;;7.30;3.20;;;;;;;7.49;59.05;96891.44;8483466;28;20225;-73
2022/01/09 18:48:16;;;;;;;11.37;6.73;;;;;;;7.49;58.37;96893.19;8483331;28;20536;-74
2022/01/09 18:52:19;;;;;;;10.13;6.27;;;;;;;7.47;58.54;96890.69;8473518;28;20555;-74
2022/01/09 18:56:22;;;;;;;13.57;7.20;;;;;;;7.39;58.39;96895.38;8454746;28;20551;-73
2022/01/09 19:00:26;;;;;;;13.67;7.60;;;;;;;7.45;58.19;96889.91;8448916;28;20230;-74
2022/01/09 19:04:29;;;;;;;12.53;5.57;;;;;;;9.51;73.13;96901.47;8449094;28;20430;-69
2022/01/09 19:08:32;;;;;;;9.43;5.33;;;;;;;9.00;55.86;96894.81;8450783;28;20234;-73
2022/01/09 19:12:36;;;;;;;11.80;6.73;;;;;;;8.35;55.98;96899.97;8474339;28;20547;-73
2022/01/09 19:16:40;;;;;;;11.60;5.60;;;;;;;8.03;56.37;96907.63;8464576;28;20418;-73